sensor_id;sensor_type;location;lat;lon;timestamp;pressure;altitude;pressure_sealevel;temperature;humidity
70976;BME280;58635;51.198;6.010;2022-12-18T00:01:27;102645.78;;;-1.35;59.52
70976;BME280;58635;51.198;6.010;2022-12-18T00:03:54;102644.13;;;-1.36;59.81
70976;BME280;58635;51.198;6.010;2022-12-18T00:06:20;102639.06;;;-1.36;59.41
70976;BME280;58635;51.198;6.010;2022-12-18T00:08:47;102637.41;;;-1.37;59.56
70976;BME280;58635;51.198;6.010;2022-12-18T00:11:13;102635.69;;;-1.36;60.02
70976;BME280;58635;51.198;6.010;2022-12-18T00:13:39;102634.06;;;-1.37;60.01
70976;BME280;58635;51.198;6.010;2022-12-18T00:16:06;102638.41;;;-1.39;59.97
70976;BME280;58635;51.198;6.010;2022-12-18T00:18:31;102641.81;;;-1.40;59.28
70976;BME280;58635;51.198;6.010;2022-12-18T00:21:00;102640.19;;;-1.41;60.05
70976;BME280;58635;51.198;6.010;2022-12-18T00:23:26;102643.59;;;-1.42;59.39
70976;BME280;58635;51.198;6.010;2022-12-18T00:25:52;102641.13;;;-1.44;59.99
70976;BME280;58635;51.198;6.010;2022-12-18T00:28:17;102642.84;;;-1.44;59.67
70976;BME280;58635;51.198;6.010;2022-12-18T00:30:42;102643.72;;;-1.45;59.70
70976;BME280;58635;51.198;6.010;2022-12-18T00:33:08;102635.38;;;-1.48;59.37
70976;BME280;58635;51.198;6.010;2022-12-18T00:35:33;102632.09;;;-1.50;59.20
70976;BME280;58635;51.198;6.010;2022-12-18T00:37:58;102638.06;;;-1.51;59.58
70976;BME280;58635;51.198;6.010;2022-12-18T00:40:23;102639.84;;;-1.53;59.27
70976;BME280;58635;51.198;6.010;2022-12-18T00:42:49;102628.91;;;-1.55;59.57
70976;BME280;58635;51.198;6.010;2022-12-18T00:45:27;102629.06;;;-1.58;59.54
70976;BME280;58635;51.198;6.010;2022-12-18T00:47:52;102627.41;;;-1.59;59.29
70976;BME280;58635;51.198;6.010;2022-12-18T00:50:18;102618.97;;;-1.59;59.28
70976;BME280;58635;51.198;6.010;2022-12-18T00:52:43;102622.34;;;-1.59;59.09
70976;BME280;58635;51.198;6.010;2022-12-18T00:55:09;102619.81;;;-1.59;59.44
70976;BME280;58635;51.198;6.010;2022-12-18T00:57:34;102621.59;;;-1.61;59.29
70976;BME280;58635;51.198;6.010;2022-12-18T01:00:00;102624.22;;;-1.62;59.40
70976;BME280;58635;51.198;6.010;2022-12-18T01:02:25;102619.22;;;-1.64;59.10
70976;BME280;58635;51.198;6.010;2022-12-18T01:04:50;102613.31;;;-1.64;59.26
70976;BME280;58635;51.198;6.010;2022-12-18T01:07:16;102620.09;;;-1.65;59.13
70976;BME280;58635;51.198;6.010;2022-12-18T01:09:41;102614.19;;;-1.65;59.72
70976;BME280;58635;51.198;6.010;2022-12-18T01:12:06;102608.28;;;-1.66;59.05
70976;BME280;58635;51.198;6.010;2022-12-18T01:14:31;102615.97;;;-1.67;59.41
70976;BME280;58635;51.198;6.010;2022-12-18T01:16:57;102612.91;;;-1.74;59.39
70976;BME280;58635;51.198;6.010;2022-12-18T01:19:22;102617.28;;;-1.78;59.42
70976;BME280;58635;51.198;6.010;2022-12-18T01:21:48;102623.19;;;-1.77;59.94
70976;BME280;58635;51.198;6.010;2022-12-18T01:24:14;102628.25;;;-1.77;59.51
70976;BME280;58635;51.198;6.010;2022-12-18T01:26:39;102626.47;;;-1.75;59.36
70976;BME280;58635;51.198;6.010;2022-12-18T01:29:04;102628.19;;;-1.75;59.82
70976;BME280;58635;51.198;6.010;2022-12-18T01:31:30;102640.06;;;-1.76;59.52
70976;BME280;58635;51.198;6.010;2022-12-18T01:33:56;102629.97;;;-1.78;59.46
70976;BME280;58635;51.198;6.010;2022-12-18T01:36:23;102635.09;;;-1.79;59.80
70976;BME280;58635;51.198;6.010;2022-12-18T01:38:48;102628.38;;;-1.80;59.25
70976;BME280;58635;51.198;6.010;2022-12-18T01:41:14;102628.38;;;-1.80;59.34
70976;BME280;58635;51.198;6.010;2022-12-18T01:43:45;102621.66;;;-1.81;59.56
70976;BME280;58635;51.198;6.010;2022-12-18T01:46:11;102614.94;;;-1.82;59.48
70976;BME280;58635;51.198;6.010;2022-12-18T01:48:36;102624.19;;;-1.81;59.77
70976;BME280;58635;51.198;6.010;2022-12-18T01:51:01;102616.66;;;-1.83;59.04
70976;BME280;58635;51.198;6.010;2022-12-18T01:53:27;102617.56;;;-1.84;59.04
70976;BME280;58635;51.198;6.010;2022-12-18T01:55:53;102618.38;;;-1.83;59.00
70976;BME280;58635;51.198;6.010;2022-12-18T01:58:20;102618.50;;;-1.86;59.15
70976;BME280;58635;51.198;6.010;2022-12-18T02:00:47;102618.50;;;-1.86;59.25
70976;BME280;58635;51.198;6.010;2022-12-18T02:03:12;102610.16;;;-1.88;58.99
70976;BME280;58635;51.198;6.010;2022-12-18T02:05:47;102607.63;;;-1.88;59.20
70976;BME280;58635;51.198;6.010;2022-12-18T02:08:19;102597.50;;;-1.90;58.97
70976;BME280;58635;51.198;6.010;2022-12-18T02:10:48;102603.47;;;-1.91;59.37
70976;BME280;58635;51.198;6.010;2022-12-18T02:13:20;102603.47;;;-1.91;59.36
70976;BME280;58635;51.198;6.010;2022-12-18T02:18:42;102615.28;;;-1.90;59.06
70976;BME280;58635;51.198;6.010;2022-12-18T02:26:37;102609.34;;;-1.89;59.41
70976;BME280;58635;51.198;6.010;2022-12-18T02:29:22;102599.22;;;-1.90;59.51
70976;BME280;58635;51.198;6.010;2022-12-18T02:31:50;102600.13;;;-1.91;59.58
70976;BME280;58635;51.198;6.010;2022-12-18T02:34:16;102604.38;;;-1.92;59.41
70976;BME280;58635;51.198;6.010;2022-12-18T02:36:43;102606.09;;;-1.92;59.21
70976;BME280;58635;51.198;6.010;2022-12-18T02:39:10;102602.72;;;-1.93;59.58
70976;BME280;58635;51.198;6.010;2022-12-18T02:41:36;102602.66;;;-1.91;59.88
70976;BME280;58635;51.198;6.010;2022-12-18T02:44:06;102607.72;;;-1.91;59.41
70976;BME280;58635;51.198;6.010;2022-12-18T02:46:33;102602.72;;;-1.93;59.39
70976;BME280;58635;51.198;6.010;2022-12-18T02:57:16;102592.88;;;-1.99;59.27
70976;BME280;58635;51.198;6.010;2022-12-18T02:59:47;102593.00;;;-2.02;58.69
70976;BME280;58635;51.198;6.010;2022-12-18T03:02:26;102588.00;;;-2.03;59.28
70976;BME280;58635;51.198;6.010;2022-12-18T03:07:36;102583.06;;;-2.07;59.78
70976;BME280;58635;51.198;6.010;2022-12-18T03:10:03;102570.47;;;-2.08;59.26
70976;BME280;58635;51.198;6.010;2022-12-18T03:13:12;102573.00;;;-2.08;59.23
70976;BME280;58635;51.198;6.010;2022-12-18T03:15:22;102566.34;;;-2.11;59.09
70976;BME280;58635;51.198;6.010;2022-12-18T03:17:51;102572.25;;;-2.10;59.24
70976;BME280;58635;51.198;6.010;2022-12-18T03:20:19;102569.78;;;-2.12;59.27
70976;BME280;58635;51.198;6.010;2022-12-18T03:22:45;102568.13;;;-2.13;59.55
70976;BME280;58635;51.198;6.010;2022-12-18T03:25:13;102573.25;;;-2.14;59.20
70976;BME280;58635;51.198;6.010;2022-12-18T03:27:40;102573.31;;;-2.16;59.13
70976;BME280;58635;51.198;6.010;2022-12-18T03:30:08;102578.53;;;-2.19;58.92
70976;BME280;58635;51.198;6.010;2022-12-18T03:32:40;102561.75;;;-2.21;59.32
70976;BME280;58635;51.198;6.010;2022-12-18T03:35:06;102560.03;;;-2.21;59.29
70976;BME280;58635;51.198;6.010;2022-12-18T03:37:33;102565.16;;;-2.22;59.13
70976;BME280;58635;51.198;6.010;2022-12-18T03:39:58;102564.34;;;-2.23;59.08
70976;BME280;58635;51.198;6.010;2022-12-18T03:45:02;102568.78;;;-2.28;59.01
70976;BME280;58635;51.198;6.010;2022-12-18T03:55:08;102553.84;;;-2.34;58.51
70976;BME280;58635;51.198;6.010;2022-12-18T03:57:34;102550.50;;;-2.34;58.90
70976;BME280;58635;51.198;6.010;2022-12-18T04:00:03;102553.84;;;-2.34;58.98
70976;BME280;58635;51.198;6.010;2022-12-18T04:02:28;102545.44;;;-2.34;58.97
70976;BME280;58635;51.198;6.010;2022-12-18T04:04:56;102550.56;;;-2.36;59.26
70976;BME280;58635;51.198;6.010;2022-12-18T04:07:23;102549.75;;;-2.37;59.03
70976;BME280;58635;51.198;6.010;2022-12-18T04:09:49;102554.03;;;-2.39;59.19
70976;BME280;58635;51.198;6.010;2022-12-18T04:12:17;102548.22;;;-2.41;59.11
70976;BME280;58635;51.198;6.010;2022-12-18T04:14:42;102547.47;;;-2.43;58.64
70976;BME280;58635;51.198;6.010;2022-12-18T04:17:07;102549.25;;;-2.45;59.16
70976;BME280;58635;51.198;6.010;2022-12-18T04:19:33;102547.66;;;-2.47;59.01
70976;BME280;58635;51.198;6.010;2022-12-18T04:21:58;102551.84;;;-2.46;58.38
70976;BME280;58635;51.198;6.010;2022-12-18T04:24:23;102543.44;;;-2.47;58.66
70976;BME280;58635;51.198;6.010;2022-12-18T04:26:49;102546.78;;;-2.46;58.46
70976;BME280;58635;51.198;6.010;2022-12-18T04:29:14;102533.28;;;-2.47;58.45
70976;BME280;58635;51.198;6.010;2022-12-18T04:31:39;102524.88;;;-2.47;59.14
70976;BME280;58635;51.198;6.010;2022-12-18T04:34:04;102527.41;;;-2.47;58.77
70976;BME280;58635;51.198;6.010;2022-12-18T04:36:30;102523.16;;;-2.47;58.65
70976;BME280;58635;51.198;6.010;2022-12-18T04:38:55;102519.91;;;-2.50;58.83
70976;BME280;58635;51.198;6.010;2022-12-18T04:41:20;102511.56;;;-2.52;58.99
70976;BME280;58635;51.198;6.010;2022-12-18T04:43:46;102516.63;;;-2.52;59.05
70976;BME280;58635;51.198;6.010;2022-12-18T04:46:11;102505.66;;;-2.53;59.50
70976;BME280;58635;51.198;6.010;2022-12-18T04:48:36;102496.34;;;-2.52;59.61
70976;BME280;58635;51.198;6.010;2022-12-18T04:51:02;102486.97;;;-2.50;59.71
70976;BME280;58635;51.198;6.010;2022-12-18T04:53:28;102498.66;;;-2.46;60.04
70976;BME280;58635;51.198;6.010;2022-12-18T04:56:06;102498.50;;;-2.43;59.85
70976;BME280;58635;51.198;6.010;2022-12-18T04:58:32;102516.03;;;-2.39;59.65
70976;BME280;58635;51.198;6.010;2022-12-18T05:00:57;102522.63;;;-2.34;60.16
70976;BME280;58635;51.198;6.010;2022-12-18T05:03:22;102528.44;;;-2.32;60.35
70976;BME280;58635;51.198;6.010;2022-12-18T05:05:50;102529.19;;;-2.30;59.72
70976;BME280;58635;51.198;6.010;2022-12-18T05:08:16;102538.38;;;-2.28;59.68
70976;BME280;58635;51.198;6.010;2022-12-18T05:10:41;102545.06;;;-2.27;59.69
70976;BME280;58635;51.198;6.010;2022-12-18T05:13:07;102550.94;;;-2.25;59.52
70976;BME280;58635;51.198;6.010;2022-12-18T05:15:32;102556.75;;;-2.23;60.21
70976;BME280;58635;51.198;6.010;2022-12-18T05:17:58;102549.22;;;-2.24;60.11
70976;BME280;58635;51.198;6.010;2022-12-18T05:20:23;102552.56;;;-2.24;60.11
70976;BME280;58635;51.198;6.010;2022-12-18T05:22:50;102553.47;;;-2.25;59.15
70976;BME280;58635;51.198;6.010;2022-12-18T05:25:16;102555.16;;;-2.25;59.93
70976;BME280;58635;51.198;6.010;2022-12-18T05:27:41;102557.69;;;-2.25;59.65
70976;BME280;58635;51.198;6.010;2022-12-18T05:30:07;102562.75;;;-2.25;59.24
70976;BME280;58635;51.198;6.010;2022-12-18T05:32:32;102561.94;;;-2.26;59.45
70976;BME280;58635;51.198;6.010;2022-12-18T05:34:57;102564.47;;;-2.26;59.40
70976;BME280;58635;51.198;6.010;2022-12-18T05:37:23;102562.75;;;-2.25;59.23
70976;BME280;58635;51.198;6.010;2022-12-18T05:39:48;102557.69;;;-2.25;59.54
70976;BME280;58635;51.198;6.010;2022-12-18T05:42:13;102554.31;;;-2.26;60.11
70976;BME280;58635;51.198;6.010;2022-12-18T05:44:39;102544.19;;;-2.26;59.74
70976;BME280;58635;51.198;6.010;2022-12-18T05:47:04;102535.75;;;-2.26;59.47
70976;BME280;58635;51.198;6.010;2022-12-18T05:49:29;102527.34;;;-2.27;59.86
70976;BME280;58635;51.198;6.010;2022-12-18T05:51:55;102521.44;;;-2.27;59.90
70976;BME280;58635;51.198;6.010;2022-12-18T05:54:20;102526.50;;;-2.27;60.01
70976;BME280;58635;51.198;6.010;2022-12-18T05:56:46;102536.66;;;-2.27;59.75
70976;BME280;58635;51.198;6.010;2022-12-18T05:59:12;102528.22;;;-2.28;60.25
70976;BME280;58635;51.198;6.010;2022-12-18T06:01:37;102531.59;;;-2.27;59.96
70976;BME280;58635;51.198;6.010;2022-12-18T06:04:03;102519.06;;;-2.30;60.08
70976;BME280;58635;51.198;6.010;2022-12-18T06:06:28;102529.19;;;-2.30;60.10
70976;BME280;58635;51.198;6.010;2022-12-18T06:08:54;102530.09;;;-2.31;59.83
70976;BME280;58635;51.198;6.010;2022-12-18T06:11:20;102528.28;;;-2.29;60.48
70976;BME280;58635;51.198;6.010;2022-12-18T06:13:46;102516.44;;;-2.29;59.75
70976;BME280;58635;51.198;6.010;2022-12-18T06:16:11;102520.50;;;-2.25;60.07
70976;BME280;58635;51.198;6.010;2022-12-18T06:18:37;102522.97;;;-2.23;60.42
70976;BME280;58635;51.198;6.010;2022-12-18T06:21:02;102518.66;;;-2.21;60.43
70976;BME280;58635;51.198;6.010;2022-12-18T06:23:28;102517.75;;;-2.20;59.87
70976;BME280;58635;51.198;6.010;2022-12-18T06:25:53;102524.41;;;-2.18;59.85
70976;BME280;58635;51.198;6.010;2022-12-18T06:28:18;102520.97;;;-2.17;60.00
70976;BME280;58635;51.198;6.010;2022-12-18T06:30:44;102522.69;;;-2.17;60.26
70976;BME280;58635;51.198;6.010;2022-12-18T06:33:09;102515.97;;;-2.18;59.81
70976;BME280;58635;51.198;6.010;2022-12-18T06:35:34;102529.47;;;-2.18;59.63
70976;BME280;58635;51.198;6.010;2022-12-18T06:38:01;102527.75;;;-2.17;60.27
70976;BME280;58635;51.198;6.010;2022-12-18T06:40:26;102522.63;;;-2.16;60.12
70976;BME280;58635;51.198;6.010;2022-12-18T06:42:51;102525.91;;;-2.14;60.82
70976;BME280;58635;51.198;6.010;2022-12-18T06:45:17;102521.66;;;-2.13;60.07
70976;BME280;58635;51.198;6.010;2022-12-18T06:47:42;102523.31;;;-2.12;59.89
70976;BME280;58635;51.198;6.010;2022-12-18T06:50:07;102526.69;;;-2.12;60.47
70976;BME280;58635;51.198;6.010;2022-12-18T06:52:33;102524.97;;;-2.11;60.32
70976;BME280;58635;51.198;6.010;2022-12-18T06:54:58;102519.06;;;-2.12;60.57
70976;BME280;58635;51.198;6.010;2022-12-18T06:57:24;102523.19;;;-2.09;60.16
70976;BME280;58635;51.198;6.010;2022-12-18T06:59:49;102527.28;;;-2.07;60.60
70976;BME280;58635;51.198;6.010;2022-12-18T07:02:14;102522.97;;;-2.04;60.13
70976;BME280;58635;51.198;6.010;2022-12-18T07:04:40;102516.06;;;-2.01;60.67
70976;BME280;58635;51.198;6.010;2022-12-18T07:07:05;102513.38;;;-1.98;59.92
70976;BME280;58635;51.198;6.010;2022-12-18T07:09:30;102510.84;;;-1.98;60.68
70976;BME280;58635;51.198;6.010;2022-12-18T07:11:55;102516.81;;;-1.99;60.23
70976;BME280;58635;51.198;6.010;2022-12-18T07:14:20;102521.88;;;-1.99;60.50
70976;BME280;58635;51.198;6.010;2022-12-18T07:16:46;102524.53;;;-2.02;59.92
70976;BME280;58635;51.198;6.010;2022-12-18T07:19:11;102521.94;;;-2.00;60.52
70976;BME280;58635;51.198;6.010;2022-12-18T07:21:36;102514.28;;;-1.99;60.13
70976;BME280;58635;51.198;6.010;2022-12-18T07:24:02;102512.50;;;-1.97;60.46
70976;BME280;58635;51.198;6.010;2022-12-18T07:26:27;102515.09;;;-1.98;60.63
70976;BME280;58635;51.198;6.010;2022-12-18T07:28:54;102513.44;;;-1.99;60.47
70976;BME280;58635;51.198;6.010;2022-12-18T07:31:20;102510.03;;;-1.98;60.52
70976;BME280;58635;51.198;6.010;2022-12-18T07:33:46;102515.09;;;-1.98;60.03
70976;BME280;58635;51.198;6.010;2022-12-18T07:36:11;102505.78;;;-1.98;60.22
70976;BME280;58635;51.198;6.010;2022-12-18T07:38:37;102492.19;;;-1.97;60.51
70976;BME280;58635;51.198;6.010;2022-12-18T07:41:03;102475.34;;;-1.98;60.11
70976;BME280;58635;51.198;6.010;2022-12-18T07:43:29;102466.03;;;-1.97;60.66
70976;BME280;58635;51.198;6.010;2022-12-18T07:45:54;102465.22;;;-1.98;60.19
70976;BME280;58635;51.198;6.010;2022-12-18T07:48:19;102460.94;;;-1.97;60.39
70976;BME280;58635;51.198;6.010;2022-12-18T07:50:45;102460.94;;;-1.97;60.19
70976;BME280;58635;51.198;6.010;2022-12-18T07:53:10;102451.78;;;-2.00;60.34
70976;BME280;58635;51.198;6.010;2022-12-18T07:55:35;102454.34;;;-2.01;60.25
70976;BME280;58635;51.198;6.010;2022-12-18T07:58:01;102452.59;;;-1.99;60.68
70976;BME280;58635;51.198;6.010;2022-12-18T08:00:27;102453.34;;;-1.97;60.58
70976;BME280;58635;51.198;6.010;2022-12-18T08:02:52;102446.50;;;-1.95;60.51
70976;BME280;58635;51.198;6.010;2022-12-18T08:05:18;102450.66;;;-1.94;60.08
70976;BME280;58635;51.198;6.010;2022-12-18T08:07:43;102442.09;;;-1.92;60.58
70976;BME280;58635;51.198;6.010;2022-12-18T08:10:09;102428.59;;;-1.92;60.44
70976;BME280;58635;51.198;6.010;2022-12-18T08:12:34;102427.75;;;-1.93;60.70
70976;BME280;58635;51.198;6.010;2022-12-18T08:14:59;102431.81;;;-1.89;60.81
70976;BME280;58635;51.198;6.010;2022-12-18T08:17:24;102431.66;;;-1.86;60.82
70976;BME280;58635;51.198;6.010;2022-12-18T08:19:50;102440.84;;;-1.83;60.48
70976;BME280;58635;51.198;6.010;2022-12-18T08:22:15;102431.38;;;-1.80;60.22
70976;BME280;58635;51.198;6.010;2022-12-18T08:24:40;102426.91;;;-1.74;60.64
70976;BME280;58635;51.198;6.010;2022-12-18T08:27:05;102426.59;;;-1.68;60.65
70976;BME280;58635;51.198;6.010;2022-12-18T08:29:31;102426.41;;;-1.64;60.54
70976;BME280;58635;51.198;6.010;2022-12-18T08:31:57;102433.03;;;-1.61;60.08
70976;BME280;58635;51.198;6.010;2022-12-18T08:34:22;102434.75;;;-1.62;60.10
70976;BME280;58635;51.198;6.010;2022-12-18T08:36:47;102443.09;;;-1.60;60.53
70976;BME280;58635;51.198;6.010;2022-12-18T08:39:12;102445.41;;;-1.55;60.73
70976;BME280;58635;51.198;6.010;2022-12-18T08:41:38;102446.03;;;-1.50;60.21
70976;BME280;58635;51.198;6.010;2022-12-18T08:44:03;102446.47;;;-1.42;60.36
70976;BME280;58635;51.198;6.010;2022-12-18T08:46:47;102444.44;;;-1.35;60.16
70976;BME280;58635;51.198;6.010;2022-12-18T08:49:12;102441.69;;;-1.31;60.54
70976;BME280;58635;51.198;6.010;2022-12-18T08:51:38;102454.16;;;-1.26;59.92
70976;BME280;58635;51.198;6.010;2022-12-18T08:54:04;102460.72;;;-1.22;59.84
70976;BME280;58635;51.198;6.010;2022-12-18T08:56:29;102450.47;;;-1.21;60.40
70976;BME280;58635;51.198;6.010;2022-12-18T08:58:55;102446.09;;;-1.17;60.08
70976;BME280;58635;51.198;6.010;2022-12-18T09:01:20;102433.16;;;-1.12;60.29
70976;BME280;58635;51.198;6.010;2022-12-18T09:03:45;102429.63;;;-1.10;60.29
70976;BME280;58635;51.198;6.010;2022-12-18T09:06:13;102421.13;;;-1.09;60.26
70976;BME280;58635;51.198;6.010;2022-12-18T09:08:38;102410.06;;;-1.08;60.34
70976;BME280;58635;51.198;6.010;2022-12-18T09:11:03;102412.59;;;-1.08;60.24
70976;BME280;58635;51.198;6.010;2022-12-18T09:13:29;102404.94;;;-1.06;60.48
70976;BME280;58635;51.198;6.010;2022-12-18T09:15:54;102405.59;;;-1.03;60.16
70976;BME280;58635;51.198;6.010;2022-12-18T09:18:21;102410.41;;;-0.98;59.97
70976;BME280;58635;51.198;6.010;2022-12-18T09:20:46;102403.41;;;-0.93;60.49
70976;BME280;58635;51.198;6.010;2022-12-18T09:23:12;102408.16;;;-0.87;59.95
70976;BME280;58635;51.198;6.010;2022-12-18T09:25:37;102399.47;;;-0.83;60.52
70976;BME280;58635;51.198;6.010;2022-12-18T09:28:04;102403.34;;;-0.76;60.23
70976;BME280;58635;51.198;6.010;2022-12-18T09:30:29;102404.66;;;-0.69;60.23
70976;BME280;58635;51.198;6.010;2022-12-18T09:32:55;102404.34;;;-0.63;59.98
70976;BME280;58635;51.198;6.010;2022-12-18T09:35:20;102409.91;;;-0.56;60.09
70976;BME280;58635;51.198;6.010;2022-12-18T09:37:46;102411.22;;;-0.49;59.57
70976;BME280;58635;51.198;6.010;2022-12-18T09:40:14;102400.00;;;-0.45;59.97
70976;BME280;58635;51.198;6.010;2022-12-18T09:42:41;102402.28;;;-0.40;59.61
70976;BME280;58635;51.198;6.010;2022-12-18T09:45:11;102398.63;;;-0.35;59.82
70976;BME280;58635;51.198;6.010;2022-12-18T09:47:39;102400.09;;;-0.31;59.72
70976;BME280;58635;51.198;6.010;2022-12-18T09:50:07;102399.19;;;-0.30;59.24
70976;BME280;58635;51.198;6.010;2022-12-18T09:52:41;102394.81;;;-0.27;59.72
70976;BME280;58635;51.198;6.010;2022-12-18T09:57:45;102396.22;;;-0.22;59.41
70976;BME280;58635;51.198;6.010;2022-12-18T10:00:16;102393.50;;;-0.19;59.43
70976;BME280;58635;51.198;6.010;2022-12-18T10:02:43;102380.63;;;-0.16;59.35
70976;BME280;58635;51.198;6.010;2022-12-18T10:07:47;102395.28;;;-0.05;59.50
70976;BME280;58635;51.198;6.010;2022-12-18T10:13:16;102399.59;;;0.09;59.70
70976;BME280;58635;51.198;6.010;2022-12-18T10:15:51;102400.28;;;0.12;59.36
70976;BME280;58635;51.198;6.010;2022-12-18T10:20:49;102368.25;;;0.24;59.32
70976;BME280;58635;51.198;6.010;2022-12-18T10:23:22;102363.69;;;0.29;59.41
70976;BME280;58635;51.198;6.010;2022-12-18T10:28:25;102366.16;;;0.45;59.10
70976;BME280;58635;51.198;6.010;2022-12-18T10:30:51;102368.38;;;0.51;59.09
70976;BME280;58635;51.198;6.010;2022-12-18T10:33:18;102374.28;;;0.51;59.12
70976;BME280;58635;51.198;6.010;2022-12-18T10:35:43;102372.38;;;0.55;58.96
70976;BME280;58635;51.198;6.010;2022-12-18T10:43:26;102368.84;;;0.72;58.97
70976;BME280;58635;51.198;6.010;2022-12-18T10:46:14;102363.56;;;0.75;58.97
70976;BME280;58635;51.198;6.010;2022-12-18T10:51:31;102357.84;;;0.85;58.70
70976;BME280;58635;51.198;6.010;2022-12-18T10:54:04;102348.19;;;0.91;58.73
70976;BME280;58635;51.198;6.010;2022-12-18T10:56:31;102339.53;;;0.93;59.06
70976;BME280;58635;51.198;6.010;2022-12-18T10:59:02;102332.53;;;0.97;58.83
70976;BME280;58635;51.198;6.010;2022-12-18T11:01:32;102329.81;;;1.00;58.55
70976;BME280;58635;51.198;6.010;2022-12-18T11:04:13;102319.31;;;1.04;58.91
70976;BME280;58635;51.198;6.010;2022-12-18T11:06:52;102308.78;;;1.10;58.70
70976;BME280;58635;51.198;6.010;2022-12-18T11:09:21;102309.47;;;1.12;58.83
70976;BME280;58635;51.198;6.010;2022-12-18T11:11:51;102308.28;;;1.18;58.64
70976;BME280;58635;51.198;6.010;2022-12-18T11:14:20;102295.16;;;1.24;58.65
70976;BME280;58635;51.198;6.010;2022-12-18T11:16:47;102298.88;;;1.33;58.75
70976;BME280;58635;51.198;6.010;2022-12-18T11:21:44;102308.06;;;1.35;58.49
70976;BME280;58635;51.198;6.010;2022-12-18T11:24:42;102310.31;;;1.40;58.53
70976;BME280;58635;51.198;6.010;2022-12-18T11:27:02;102295.72;;;1.42;58.36
70976;BME280;58635;51.198;6.010;2022-12-18T11:29:30;102292.19;;;1.44;58.29
70976;BME280;58635;51.198;6.010;2022-12-18T11:34:59;102280.78;;;1.50;58.09
70976;BME280;58635;51.198;6.010;2022-12-18T11:37:25;102272.09;;;1.53;58.21
70976;BME280;58635;51.198;6.010;2022-12-18T11:40:12;102272.66;;;1.58;58.00
70976;BME280;58635;51.198;6.010;2022-12-18T11:42:45;102278.16;;;1.64;58.20
70976;BME280;58635;51.198;6.010;2022-12-18T11:47:45;102281.47;;;1.79;58.17
70976;BME280;58635;51.198;6.010;2022-12-18T11:50:57;102281.97;;;1.84;57.64
70976;BME280;58635;51.198;6.010;2022-12-18T11:53:03;102276.66;;;1.87;57.79
70976;BME280;58635;51.198;6.010;2022-12-18T11:58:28;102270.16;;;1.96;57.59
70976;BME280;58635;51.198;6.010;2022-12-18T12:05:56;102265.47;;;2.02;57.25
70976;BME280;58635;51.198;6.010;2022-12-18T12:13:51;102255.88;;;2.06;57.54
70976;BME280;58635;51.198;6.010;2022-12-18T12:16:24;102259.97;;;2.09;57.30
70976;BME280;58635;51.198;6.010;2022-12-18T12:18:55;102254.66;;;2.12;57.41
70976;BME280;58635;51.198;6.010;2022-12-18T12:21:31;102241.06;;;2.11;57.12
70976;BME280;58635;51.198;6.010;2022-12-18T12:29:16;102224.13;;;2.23;57.08
70976;BME280;58635;51.198;6.010;2022-12-18T12:34:17;102213.06;;;2.35;57.05
70976;BME280;58635;51.198;6.010;2022-12-18T12:39:20;102209.59;;;2.36;56.84
70976;BME280;58635;51.198;6.010;2022-12-18T12:41:47;102195.19;;;2.35;56.76
70976;BME280;58635;51.198;6.010;2022-12-18T12:44:33;102194.72;;;2.30;56.52
70976;BME280;58635;51.198;6.010;2022-12-18T12:47:03;102190.41;;;2.30;56.72
70976;BME280;58635;51.198;6.010;2022-12-18T12:49:30;102203.06;;;2.32;56.77
70976;BME280;58635;51.198;6.010;2022-12-18T12:52:22;102200.41;;;2.33;56.55
70976;BME280;58635;51.198;6.010;2022-12-18T12:54:42;102190.72;;;2.39;56.67
70976;BME280;58635;51.198;6.010;2022-12-18T12:57:12;102188.88;;;2.41;56.47
70976;BME280;58635;51.198;6.010;2022-12-18T13:02:20;102170.06;;;2.42;56.76
70976;BME280;58635;51.198;6.010;2022-12-18T13:04:51;102177.50;;;2.45;56.81
70976;BME280;58635;51.198;6.010;2022-12-18T13:07:29;102173.22;;;2.45;56.40
70976;BME280;58635;51.198;6.010;2022-12-18T13:15:32;102157.91;;;2.45;56.11
70976;BME280;58635;51.198;6.010;2022-12-18T13:20:46;102149.31;;;2.46;56.44
70976;BME280;58635;51.198;6.010;2022-12-18T13:28:15;102146.56;;;2.49;56.10
70976;BME280;58635;51.198;6.010;2022-12-18T13:30:51;102137.25;;;2.48;56.01
70976;BME280;58635;51.198;6.010;2022-12-18T13:38:23;102133.34;;;2.55;56.01
70976;BME280;58635;51.198;6.010;2022-12-18T13:43:27;102137.44;;;2.58;55.90
70976;BME280;58635;51.198;6.010;2022-12-18T13:48:37;102138.88;;;2.62;55.89
70976;BME280;58635;51.198;6.010;2022-12-18T13:51:04;102129.47;;;2.62;56.18
70976;BME280;58635;51.198;6.010;2022-12-18T13:53:38;102127.72;;;2.63;55.97
70976;BME280;58635;51.198;6.010;2022-12-18T13:56:04;102123.31;;;2.65;55.97
70976;BME280;58635;51.198;6.010;2022-12-18T13:58:30;102120.75;;;2.65;55.88
70976;BME280;58635;51.198;6.010;2022-12-18T14:00:55;102118.91;;;2.67;56.17
70976;BME280;58635;51.198;6.010;2022-12-18T14:03:22;102115.31;;;2.70;56.05
70976;BME280;58635;51.198;6.010;2022-12-18T14:05:55;102111.13;;;2.69;55.62
70976;BME280;58635;51.198;6.010;2022-12-18T14:08:21;102107.88;;;2.67;56.15
70976;BME280;58635;51.198;6.010;2022-12-18T14:10:48;102108.09;;;2.63;55.82
70976;BME280;58635;51.198;6.010;2022-12-18T14:13:20;102107.28;;;2.63;55.93
70976;BME280;58635;51.198;6.010;2022-12-18T14:15:46;102107.47;;;2.60;55.59
70976;BME280;58635;51.198;6.010;2022-12-18T14:18:26;102108.41;;;2.59;55.56
70976;BME280;58635;51.198;6.010;2022-12-18T14:20:55;102102.00;;;2.53;55.54
70976;BME280;58635;51.198;6.010;2022-12-18T14:23:25;102115.38;;;2.57;56.01
70976;BME280;58635;51.198;6.010;2022-12-18T14:25:50;102116.88;;;2.59;55.78
70976;BME280;58635;51.198;6.010;2022-12-18T14:28:15;102126.91;;;2.62;55.99
70976;BME280;58635;51.198;6.010;2022-12-18T14:30:42;102126.91;;;2.62;55.81
70976;BME280;58635;51.198;6.010;2022-12-18T14:35:34;102128.13;;;2.57;55.69
70976;BME280;58635;51.198;6.010;2022-12-18T14:40:40;102119.53;;;2.58;55.66
70976;BME280;58635;51.198;6.010;2022-12-18T14:43:08;102115.38;;;2.57;55.58
70976;BME280;58635;51.198;6.010;2022-12-18T14:45:42;102108.63;;;2.56;55.66
70976;BME280;58635;51.198;6.010;2022-12-18T14:50:40;102121.41;;;2.56;55.59